sensor_id;sensor_type;location;lat;lon;timestamp;temperature;humidity
15152;DHT22;7676;50.900;6.234;2023-02-28T00:00:46;0.80;99.90
15152;DHT22;7676;50.900;6.234;2023-02-28T00:15:59;0.90;99.90
15152;DHT22;7676;50.900;6.234;2023-02-28T00:31:02;0.60;99.90
15152;DHT22;7676;50.900;6.234;2023-02-28T00:46:06;0.50;99.90
15152;DHT22;7676;50.900;6.234;2023-02-28T01:01:08;0.40;99.90
15152;DHT22;7676;50.900;6.234;2023-02-28T01:16:13;0.50;99.90
15152;DHT22;7676;50.900;6.234;2023-02-28T01:31:16;0.50;99.90
15152;DHT22;7676;50.900;6.234;2023-02-28T01:46:18;0.40;99.90
15152;DHT22;7676;50.900;6.234;2023-02-28T02:01:25;0.50;99.90
15152;DHT22;7676;50.900;6.234;2023-02-28T02:47:10;0.30;99.90
15152;DHT22;7676;50.900;6.234;2023-02-28T03:02:15;0.40;99.90
15152;DHT22;7676;50.900;6.234;2023-02-28T03:32:40;0.40;99.90
15152;DHT22;7676;50.900;6.234;2023-02-28T03:48:48;0.30;99.90
15152;DHT22;7676;50.900;6.234;2023-02-28T04:03:24;0.60;99.90
15152;DHT22;7676;50.900;6.234;2023-02-28T04:18:26;0.90;99.90
15152;DHT22;7676;50.900;6.234;2023-02-28T04:33:30;0.70;99.90
15152;DHT22;7676;50.900;6.234;2023-02-28T04:48:35;0.20;99.90
15152;DHT22;7676;50.900;6.234;2023-02-28T05:03:41;-0.30;99.90
15152;DHT22;7676;50.900;6.234;2023-02-28T05:18:43;-0.50;99.90
15152;DHT22;7676;50.900;6.234;2023-02-28T05:33:46;-0.80;99.90
15152;DHT22;7676;50.900;6.234;2023-02-28T05:48:48;-1.50;99.90
15152;DHT22;7676;50.900;6.234;2023-02-28T06:03:51;-1.30;99.90
15152;DHT22;7676;50.900;6.234;2023-02-28T06:18:54;-1.30;99.90
15152;DHT22;7676;50.900;6.234;2023-02-28T06:33:58;-1.50;99.90
15152;DHT22;7676;50.900;6.234;2023-02-28T06:49:00;-1.20;99.90
15152;DHT22;7676;50.900;6.234;2023-02-28T07:04:02;-1.30;99.90
15152;DHT22;7676;50.900;6.234;2023-02-28T07:19:07;-1.30;99.90
15152;DHT22;7676;50.900;6.234;2023-02-28T07:34:09;-1.20;99.90
15152;DHT22;7676;50.900;6.234;2023-02-28T07:49:12;-1.00;99.90
15152;DHT22;7676;50.900;6.234;2023-02-28T08:04:14;-0.50;99.90
15152;DHT22;7676;50.900;6.234;2023-02-28T08:19:17;-0.10;99.90
15152;DHT22;7676;50.900;6.234;2023-02-28T08:34:19;0.30;99.90
15152;DHT22;7676;50.900;6.234;2023-02-28T08:49:21;0.40;99.90
15152;DHT22;7676;50.900;6.234;2023-02-28T09:04:24;0.80;99.90
15152;DHT22;7676;50.900;6.234;2023-02-28T09:19:26;1.10;99.90
15152;DHT22;7676;50.900;6.234;2023-02-28T09:34:29;1.30;99.90
15152;DHT22;7676;50.900;6.234;2023-02-28T09:49:40;1.60;99.90
15152;DHT22;7676;50.900;6.234;2023-02-28T10:04:58;1.80;99.90
15152;DHT22;7676;50.900;6.234;2023-02-28T10:20:06;2.10;99.90
15152;DHT22;7676;50.900;6.234;2023-02-28T10:51:13;1.90;99.90
15152;DHT22;7676;50.900;6.234;2023-02-28T11:05:49;2.40;99.90
15152;DHT22;7676;50.900;6.234;2023-02-28T11:20:54;2.60;99.90
15152;DHT22;7676;50.900;6.234;2023-02-28T11:36:02;3.00;99.90
15152;DHT22;7676;50.900;6.234;2023-02-28T12:06:30;3.60;99.90
15152;DHT22;7676;50.900;6.234;2023-02-28T12:36:56;3.90;99.90
15152;DHT22;7676;50.900;6.234;2023-02-28T12:52:02;4.10;99.90
15152;DHT22;7676;50.900;6.234;2023-02-28T13:22:42;3.70;99.90
15152;DHT22;7676;50.900;6.234;2023-02-28T13:37:47;3.70;99.90
15152;DHT22;7676;50.900;6.234;2023-02-28T14:08:20;4.50;99.90
15152;DHT22;7676;50.900;6.234;2023-02-28T14:24:06;4.40;99.90
15152;DHT22;7676;50.900;6.234;2023-02-28T14:54:14;4.50;99.90
15152;DHT22;7676;50.900;6.234;2023-02-28T15:09:18;4.20;99.90
15152;DHT22;7676;50.900;6.234;2023-02-28T15:39:44;4.40;99.90
15152;DHT22;7676;50.900;6.234;2023-02-28T15:54:47;4.40;99.90
15152;DHT22;7676;50.900;6.234;2023-02-28T16:09:51;4.60;99.90
15152;DHT22;7676;50.900;6.234;2023-02-28T16:24:53;4.40;99.90
15152;DHT22;7676;50.900;6.234;2023-02-28T16:39:56;4.40;99.90
15152;DHT22;7676;50.900;6.234;2023-02-28T16:54:58;4.60;99.90
15152;DHT22;7676;50.900;6.234;2023-02-28T17:10:08;4.10;99.90
15152;DHT22;7676;50.900;6.234;2023-02-28T17:25:11;3.80;99.90
15152;DHT22;7676;50.900;6.234;2023-02-28T17:40:16;3.30;99.90
15152;DHT22;7676;50.900;6.234;2023-02-28T17:55:18;2.90;99.90
15152;DHT22;7676;50.900;6.234;2023-02-28T18:10:21;2.60;99.90
15152;DHT22;7676;50.900;6.234;2023-02-28T18:25:24;2.60;99.90
15152;DHT22;7676;50.900;6.234;2023-02-28T18:40:27;2.30;99.90
15152;DHT22;7676;50.900;6.234;2023-02-28T18:55:31;2.70;99.90
15152;DHT22;7676;50.900;6.234;2023-02-28T19:10:33;2.50;99.90
15152;DHT22;7676;50.900;6.234;2023-02-28T19:25:40;2.00;99.90
15152;DHT22;7676;50.900;6.234;2023-02-28T19:40:43;1.80;99.90
15152;DHT22;7676;50.900;6.234;2023-02-28T19:55:47;1.70;99.90
15152;DHT22;7676;50.900;6.234;2023-02-28T20:11:06;1.70;99.90
15152;DHT22;7676;50.900;6.234;2023-02-28T20:26:11;1.90;99.90
15152;DHT22;7676;50.900;6.234;2023-02-28T20:41:13;2.00;99.90
15152;DHT22;7676;50.900;6.234;2023-02-28T20:56:18;2.00;99.90
15152;DHT22;7676;50.900;6.234;2023-02-28T21:11:29;1.80;99.90
15152;DHT22;7676;50.900;6.234;2023-02-28T21:26:32;2.20;99.90
15152;DHT22;7676;50.900;6.234;2023-02-28T21:41:35;2.20;99.90
15152;DHT22;7676;50.900;6.234;2023-02-28T21:56:37;2.90;99.90
15152;DHT22;7676;50.900;6.234;2023-02-28T22:11:40;2.80;99.90
15152;DHT22;7676;50.900;6.234;2023-02-28T22:26:42;2.50;99.90
15152;DHT22;7676;50.900;6.234;2023-02-28T22:41:44;1.40;99.90
15152;DHT22;7676;50.900;6.234;2023-02-28T22:56:47;0.80;99.90
15152;DHT22;7676;50.900;6.234;2023-02-28T23:11:49;1.00;99.90
15152;DHT22;7676;50.900;6.234;2023-02-28T23:26:55;1.80;99.90
15152;DHT22;7676;50.900;6.234;2023-02-28T23:41:58;2.30;99.90
15152;DHT22;7676;50.900;6.234;2023-02-28T23:57:00;2.30;99.90
